Time;durP1;ratioP1;P1;durP2;ratioP2;P2;SDS_P1;SDS_P2;PMS_P1;PMS_P2;Temp;Humidity;BMP_temperature;BMP_pressure;BME280_temperature;BME280_humidity;BME280_pressure;Samples;Min_cycle;Max_cycle;Signal;HPM_P1;HPM_P2
2022/09/28 00:00:32;;;;;;;36.63;21.27;;;9.20;99.90;;;;;;4991554;28;20121;-81
2022/09/28 00:02:58;;;;;;;37.83;23.35;;;9.20;99.90;;;;;;4991688;28;20050;-81
2022/09/28 00:05:25;;;;;;;38.05;23.15;;;9.20;99.90;;;;;;4992701;28;20109;-83
2022/09/28 00:07:52;;;;;;;47.60;26.08;;;9.30;99.90;;;;;;4992707;28;20484;-83
2022/09/28 00:10:21;;;;;;;43.28;25.33;;;9.20;99.90;;;;;;4992573;28;20036;-83
2022/09/28 00:12:48;;;;;;;39.35;24.33;;;9.30;99.90;;;;;;4991537;28;20023;-83
2022/09/28 00:15:14;;;;;;;45.22;24.67;;;9.20;99.90;;;;;;4992584;28;20080;-80
2022/09/28 00:17:39;;;;;;;35.42;22.95;;;9.20;99.90;;;;;;4992712;28;20023;-80
2022/09/28 00:20:05;;;;;;;33.92;20.35;;;9.20;99.90;;;;;;4989554;28;20026;-80
2022/09/28 00:22:31;;;;;;;35.83;21.48;;;9.20;99.90;;;;;;4971962;28;20098;-83
2022/09/28 00:24:56;;;;;;;33.72;22.05;;;9.20;99.90;;;;;;4973034;28;20034;-83
2022/09/28 00:27:22;;;;;;;34.85;23.08;;;9.20;99.90;;;;;;4972997;28;20124;-80
2022/09/28 00:29:47;;;;;;;34.03;21.42;;;9.10;99.90;;;;;;4982353;28;20027;-80
2022/09/28 00:32:13;;;;;;;39.67;23.35;;;9.10;99.90;;;;;;4991596;28;20054;-81
2022/09/28 00:34:42;;;;;;;36.42;22.63;;;9.10;99.90;;;;;;4977483;28;20023;-83
2022/09/28 00:37:08;;;;;;;34.58;21.25;;;9.10;99.90;;;;;;4973040;28;20037;-83
2022/09/28 00:39:35;;;;;;;33.40;20.67;;;9.10;99.90;;;;;;4971496;28;20114;-81
2022/09/28 00:42:02;;;;;;;41.20;22.10;;;9.10;99.90;;;;;;4972994;28;20023;-80
2022/09/28 00:44:30;;;;;;;39.08;22.52;;;9.10;99.90;;;;;;4971511;28;20054;-83
2022/09/28 00:47:18;;;;;;;35.97;22.35;;;9.10;99.90;;;;;;4972535;28;20480;-83
2022/09/28 00:49:50;;;;;;;37.53;21.30;;;9.10;99.90;;;;;;4971454;28;20480;-80
2022/09/28 00:52:27;;;;;;;34.60;22.30;;;9.10;99.90;;;;;;4972931;28;20027;-83
2022/09/28 00:54:53;;;;;;;37.75;22.35;;;9.00;99.90;;;;;;4975913;28;20437;-79
2022/09/28 00:57:21;;;;;;;34.38;21.45;;;9.00;99.90;;;;;;4990715;28;20109;-80
2022/09/28 00:59:48;;;;;;;39.10;22.00;;;9.00;99.90;;;;;;4990604;28;20121;-79
2022/09/28 01:02:14;;;;;;;35.35;21.13;;;9.10;99.90;;;;;;4991936;28;20037;-79
2022/09/28 01:04:39;;;;;;;35.03;22.00;;;9.10;99.90;;;;;;4990627;28;20113;-79
2022/09/28 01:07:07;;;;;;;37.30;22.63;;;9.10;99.90;;;;;;4990463;28;20027;-84
2022/09/28 01:09:37;;;;;;;40.88;23.85;;;9.10;99.90;;;;;;5008959;28;20028;-80
2022/09/28 01:12:02;;;;;;;44.47;22.90;;;9.10;99.90;;;;;;5073936;28;20028;-80
2022/09/28 01:14:28;;;;;;;44.05;23.48;;;9.10;99.90;;;;;;5072553;28;20107;-81
2022/09/28 01:16:59;;;;;;;40.00;23.77;;;9.20;99.90;;;;;;5073948;28;20021;-80
2022/09/28 01:19:43;;;;;;;49.00;25.30;;;9.20;99.90;;;;;;5072618;28;20029;-83
2022/09/28 01:22:27;;;;;;;44.22;25.38;;;9.20;99.90;;;;;;5073833;28;20078;-80
2022/09/28 01:24:59;;;;;;;51.25;24.90;;;9.10;99.90;;;;;;5073811;28;20032;-83
2022/09/28 01:27:28;;;;;;;51.03;25.85;;;9.10;99.90;;;;;;5039276;28;20123;-83
2022/09/28 01:29:59;;;;;;;51.30;25.48;;;9.10;99.90;;;;;;4980949;28;20500;-83
2022/09/28 01:32:31;;;;;;;54.78;26.80;;;9.10;99.90;;;;;;4971952;28;20539;-83
2022/09/28 01:35:17;;;;;;;47.30;24.13;;;9.00;99.90;;;;;;4988286;28;20018;-80
2022/09/28 01:38:00;;;;;;;43.17;22.13;;;9.00;99.90;;;;;;4990244;28;20032;-83
2022/09/28 01:40:27;;;;;;;48.10;27.95;;;8.90;99.90;;;;;;4991504;28;20460;-79
2022/09/28 01:43:01;;;;;;;43.42;23.88;;;8.90;99.90;;;;;;4990260;28;20030;-80
2022/09/28 01:45:31;;;;;;;37.08;21.92;;;8.90;99.90;;;;;;4991484;28;20026;-80
2022/09/28 01:48:01;;;;;;;37.97;24.05;;;8.90;99.90;;;;;;4990044;28;20039;-80
2022/09/28 01:50:30;;;;;;;36.40;22.45;;;8.80;99.90;;;;;;4991285;28;20040;-83
2022/09/28 01:53:05;;;;;;;37.30;21.58;;;8.80;99.90;;;;;;4991309;28;20022;-80
2022/09/28 01:55:34;;;;;;;38.40;22.67;;;8.80;99.90;;;;;;4991298;28;20026;-80
2022/09/28 01:58:06;;;;;;;36.13;21.52;;;8.70;99.90;;;;;;4991128;28;20484;-80
2022/09/28 02:00:34;;;;;;;39.20;21.92;;;8.70;99.90;;;;;;4990020;28;20079;-84
2022/09/28 02:03:19;;;;;;;39.85;23.25;;;8.70;99.90;;;;;;4991005;28;20029;-80
2022/09/28 02:05:58;;;;;;;38.72;21.67;;;8.70;99.90;;;;;;4989692;28;20537;-83
2022/09/28 02:08:32;;;;;;;40.25;21.70;;;8.60;99.90;;;;;;4991131;28;20029;-83
2022/09/28 02:11:08;;;;;;;36.10;21.80;;;8.60;99.90;;;;;;4989589;28;20022;-80
2022/09/28 02:13:42;;;;;;;36.10;21.25;;;8.60;99.90;;;;;;4991073;28;20030;-83
2022/09/28 02:16:41;;;;;;;38.58;23.27;;;8.60;99.90;;;;;;4990970;28;20034;-80
2022/09/28 02:19:14;;;;;;;42.20;23.13;;;8.60;99.90;;;;;;5001411;28;20125;-80
2022/09/28 02:21:47;;;;;;;39.25;23.50;;;8.60;99.90;;;;;;4989634;28;20026;-83
2022/09/28 02:24:27;;;;;;;39.88;22.52;;;8.60;99.90;;;;;;4990813;28;20031;-80
2022/09/28 02:26:58;;;;;;;45.47;24.80;;;8.60;99.90;;;;;;4990694;28;20031;-80
2022/09/28 02:29:24;;;;;;;43.28;24.33;;;8.60;99.90;;;;;;4982590;28;20023;-83
2022/09/28 02:31:50;;;;;;;45.83;24.95;;;8.60;99.90;;;;;;4969860;28;20046;-82
2022/09/28 02:34:16;;;;;;;45.78;24.65;;;8.60;99.90;;;;;;4982278;28;20151;-80
2022/09/28 02:36:44;;;;;;;44.28;24.90;;;8.60;99.90;;;;;;4990737;28;20089;-83
2022/09/28 02:39:15;;;;;;;44.75;24.17;;;8.60;99.90;;;;;;4990724;28;20113;-83
2022/09/28 02:41:50;;;;;;;36.03;23.10;;;8.60;99.90;;;;;;4989342;28;20164;-83
2022/09/28 02:44:21;;;;;;;41.20;24.10;;;8.60;99.90;;;;;;4990604;28;20033;-83
2022/09/28 02:47:24;;;;;;;46.65;26.88;;;8.50;99.90;;;;;;4990417;28;20076;-80
2022/09/28 02:50:02;;;;;;;42.25;25.40;;;8.50;99.90;;;;;;4989277;28;20031;-80
2022/09/28 02:52:49;;;;;;;42.75;24.52;;;8.50;99.90;;;;;;4989205;28;20080;-81
2022/09/28 02:55:37;;;;;;;34.83;21.10;;;8.50;99.90;;;;;;4993474;28;20037;-85
2022/09/28 02:58:30;;;;;;;27.17;16.90;;;8.50;99.90;;;;;;4993990;28;20031;-80
2022/09/28 03:01:13;;;;;;;30.20;17.48;;;8.40;99.90;;;;;;4992828;28;20022;-85
2022/09/28 03:04:09;;;;;;;29.60;17.05;;;8.40;99.90;;;;;;4992481;28;20142;-84
2022/09/28 03:06:49;;;;;;;22.60;15.40;;;8.40;99.90;;;;;;5000944;28;20046;-81
2022/09/28 03:09:24;;;;;;;24.73;15.98;;;8.40;99.90;;;;;;4993778;28;20460;-84
2022/09/28 03:11:57;;;;;;;34.47;20.33;;;8.40;99.90;;;;;;4993710;28;20544;-80
2022/09/28 03:14:23;;;;;;;80.03;39.00;;;8.40;99.90;;;;;;4994086;28;20030;-81
2022/09/28 03:16:49;;;;;;;80.22;40.10;;;8.40;99.90;;;;;;4992428;28;20483;-83
2022/09/28 03:19:18;;;;;;;68.22;30.08;;;8.30;99.90;;;;;;4992283;28;20105;-81
2022/09/28 03:21:44;;;;;;;38.15;18.48;;;8.30;99.90;;;;;;4992292;28;20026;-81
2022/09/28 03:24:10;;;;;;;30.35;15.88;;;8.30;99.90;;;;;;4993498;28;20026;-81
2022/09/28 03:26:37;;;;;;;30.48;17.88;;;8.30;99.90;;;;;;4993442;28;20484;-80
2022/09/28 03:29:03;;;;;;;36.10;17.40;;;8.30;99.90;;;;;;4987562;28;20019;-80
2022/09/28 03:31:29;;;;;;;28.48;16.52;;;8.20;99.90;;;;;;4972612;28;20503;-80
2022/09/28 03:33:54;;;;;;;25.80;15.18;;;8.20;99.90;;;;;;4981360;28;20480;-83
2022/09/28 03:36:20;;;;;;;25.73;14.35;;;8.20;99.90;;;;;;4993387;28;20019;-80
2022/09/28 03:38:45;;;;;;;27.40;14.27;;;8.30;99.90;;;;;;4991925;28;20031;-82
2022/09/28 03:41:11;;;;;;;30.30;14.82;;;8.30;99.90;;;;;;4993333;28;20072;-81
2022/09/28 03:43:37;;;;;;;38.30;19.02;;;8.30;99.90;;;;;;4993229;28;20037;-82
2022/09/28 03:46:03;;;;;;;29.08;15.10;;;8.30;99.90;;;;;;4993140;28;20111;-82
2022/09/28 03:48:31;;;;;;;36.83;19.75;;;8.30;99.90;;;;;;4993086;28;20614;-80
2022/09/28 03:50:59;;;;;;;44.35;18.92;;;8.30;99.90;;;;;;4993087;28;20159;-82
2022/09/28 03:53:25;;;;;;;32.20;19.33;;;8.30;99.90;;;;;;4991765;28;20015;-81
2022/09/28 03:55:54;;;;;;;34.65;19.27;;;8.20;99.90;;;;;;4993045;28;20026;-80
2022/09/28 03:58:21;;;;;;;42.70;20.52;;;8.20;99.90;;;;;;4992977;28;20029;-82
2022/09/28 04:00:50;;;;;;;32.30;19.13;;;8.20;99.90;;;;;;4991679;28;20069;-83
2022/09/28 04:03:16;;;;;;;29.73;18.00;;;8.20;99.90;;;;;;4992778;28;20050;-80
2022/09/28 04:05:49;;;;;;;34.05;17.40;;;8.10;99.90;;;;;;4991859;28;20057;-80
2022/09/28 04:08:14;;;;;;;33.42;17.42;;;8.00;99.90;;;;;;4991523;28;20033;-82
2022/09/28 04:10:40;;;;;;;31.92;15.93;;;8.00;99.90;;;;;;4992788;28;20396;-82
2022/09/28 04:13:06;;;;;;;33.22;18.30;;;8.00;99.90;;;;;;4992729;28;20425;-79
2022/09/28 04:15:31;;;;;;;36.88;19.00;;;7.90;99.90;;;;;;4976815;28;20034;-82
2022/09/28 04:17:57;;;;;;;30.90;18.17;;;7.90;99.90;;;;;;4973001;28;20096;-83
2022/09/28 04:20:22;;;;;;;35.25;18.40;;;7.90;99.90;;;;;;4971891;28;20029;-84
2022/09/28 04:22:48;;;;;;;39.20;19.45;;;7.80;99.90;;;;;;4972980;28;20058;-85
2022/09/28 04:25:14;;;;;;;33.63;19.20;;;7.80;99.90;;;;;;4971645;28;20485;-78
2022/09/28 04:30:23;;;;;;;32.05;16.27;;;7.80;99.90;;;;;;4988549;28;20041;-80
2022/09/28 04:32:49;;;;;;;30.52;17.35;;;7.70;99.90;;;;;;4990933;28;20050;-78
2022/09/28 04:35:15;;;;;;;30.63;16.50;;;7.70;99.90;;;;;;4971459;28;20058;-78
2022/09/28 04:37:41;;;;;;;29.55;15.23;;;7.60;99.90;;;;;;4972950;28;20023;-92
2022/09/28 04:40:07;;;;;;;25.88;14.80;;;7.60;99.90;;;;;;4972752;28;20034;-85
2022/09/28 04:42:33;;;;;;;32.25;16.63;;;7.50;99.90;;;;;;4971665;28;20392;-78
2022/09/28 04:44:59;;;;;;;35.28;16.38;;;7.50;99.90;;;;;;4971294;28;20023;-84
2022/09/28 04:47:25;;;;;;;35.03;15.70;;;7.50;99.90;;;;;;4972657;28;20027;-78
2022/09/28 04:49:51;;;;;;;25.33;15.48;;;7.50;99.90;;;;;;4971229;28;20027;-84
2022/09/28 04:52:16;;;;;;;22.92;13.27;;;7.50;99.90;;;;;;4971482;28;20030;-79
2022/09/28 04:54:42;;;;;;;25.65;12.32;;;7.40;99.90;;;;;;4971310;28;20468;-84
2022/09/28 04:57:08;;;;;;;27.52;12.60;;;7.40;99.90;;;;;;4972618;28;20027;-84
2022/09/28 04:59:36;;;;;;;30.08;15.15;;;7.40;99.90;;;;;;4980193;28;20476;-84
2022/09/28 05:02:02;;;;;;;22.45;12.20;;;7.40;99.90;;;;;;4992246;28;20026;-79
2022/09/28 05:04:29;;;;;;;18.70;9.95;;;7.40;99.90;;;;;;4991686;28;20474;-78
2022/09/28 05:06:54;;;;;;;24.90;11.40;;;7.30;99.90;;;;;;4990227;28;20434;-78
2022/09/28 05:09:20;;;;;;;19.30;10.10;;;7.40;99.90;;;;;;4999004;28;20027;-78
2022/09/28 05:11:49;;;;;;;15.93;9.85;;;7.30;99.90;;;;;;4985748;28;20050;-77
2022/09/28 05:14:15;;;;;;;24.38;11.38;;;7.30;99.90;;;;;;4989054;28;20507;-81
2022/09/28 05:16:41;;;;;;;20.70;10.32;;;7.40;99.90;;;;;;4982589;28;20038;-80
2022/09/28 05:19:06;;;;;;;25.33;11.45;;;7.40;99.90;;;;;;4993183;28;20031;-82
2022/09/28 05:21:32;;;;;;;44.90;16.45;;;7.40;99.90;;;;;;4991353;28;20025;-78
2022/09/28 05:23:58;;;;;;;49.58;20.83;;;7.40;99.90;;;;;;4990167;28;20429;-83
2022/09/28 05:26:24;;;;;;;50.03;18.25;;;7.50;99.90;;;;;;4990223;28;20038;-78
2022/09/28 05:28:49;;;;;;;27.85;14.38;;;7.50;99.90;;;;;;4986884;28;20018;-80
2022/09/28 05:31:15;;;;;;;27.60;13.30;;;7.60;99.90;;;;;;4972308;28;20080;-78
2022/09/28 05:33:41;;;;;;;22.98;12.90;;;7.60;99.90;;;;;;4989651;28;20393;-80
2022/09/28 05:36:09;;;;;;;23.58;12.10;;;7.60;99.90;;;;;;4988656;28;20018;-78
2022/09/28 05:38:35;;;;;;;15.98;10.05;;;7.70;99.90;;;;;;4990124;28;20026;-77
2022/09/28 05:41:01;;;;;;;25.08;11.68;;;7.70;99.90;;;;;;4987502;28;20378;-77
2022/09/28 05:43:27;;;;;;;25.98;11.60;;;7.70;99.90;;;;;;4988464;28;20395;-79
2022/09/28 05:45:52;;;;;;;27.70;11.82;;;7.70;99.90;;;;;;4990226;28;20074;-77
2022/09/28 05:48:18;;;;;;;23.13;10.98;;;7.80;99.90;;;;;;4990830;28;20486;-82
2022/09/28 05:50:44;;;;;;;23.63;10.82;;;7.80;99.90;;;;;;4990678;28;20031;-77
2022/09/28 05:53:09;;;;;;;16.50;9.68;;;7.90;99.90;;;;;;4988504;28;20739;-83
2022/09/28 05:55:36;;;;;;;26.27;12.60;;;8.00;99.90;;;;;;4988376;28;20076;-76
2022/09/28 05:58:04;;;;;;;24.80;10.50;;;8.00;99.90;;;;;;4988018;28;20575;-83
2022/09/28 06:00:31;;;;;;;24.90;10.23;;;8.20;99.90;;;;;;4983158;28;20018;-77
2022/09/28 06:02:57;;;;;;;16.98;7.82;;;8.30;99.90;;;;;;4975454;28;20030;-77
2022/09/28 06:05:23;;;;;;;16.88;8.82;;;8.30;99.90;;;;;;4970311;28;20104;-77
2022/09/28 06:07:49;;;;;;;17.00;7.95;;;8.30;99.90;;;;;;4977385;28;20038;-78
2022/09/28 06:10:15;;;;;;;19.98;8.88;;;8.30;99.90;;;;;;4983772;28;20067;-82
2022/09/28 06:12:41;;;;;;;19.52;8.63;;;8.30;99.90;;;;;;4976428;28;20027;-77
2022/09/28 06:15:07;;;;;;;11.43;6.50;;;8.30;99.90;;;;;;4967214;28;20613;-77
2022/09/28 06:17:32;;;;;;;16.33;7.10;;;8.20;99.90;;;;;;4984219;28;20498;-77
2022/09/28 06:19:58;;;;;;;13.73;7.30;;;8.10;99.90;;;;;;4986923;28;20078;-77
2022/09/28 06:22:24;;;;;;;13.40;6.75;;;8.10;99.90;;;;;;4989666;28;20380;-77
2022/09/28 06:24:49;;;;;;;21.95;9.43;;;8.10;99.90;;;;;;4987831;28;20106;-80
2022/09/28 06:27:15;;;;;;;10.32;5.38;;;8.20;99.90;;;;;;4970754;28;20042;-80
2022/09/28 06:29:41;;;;;;;14.27;6.95;;;8.10;99.90;;;;;;4982044;28;20033;-79
2022/09/28 06:32:06;;;;;;;12.60;6.28;;;8.10;99.90;;;;;;4993114;28;20067;-87
2022/09/28 06:34:33;;;;;;;16.98;7.75;;;8.10;99.90;;;;;;4993080;28;20046;-82
2022/09/28 06:36:59;;;;;;;15.82;7.03;;;8.10;99.90;;;;;;4993711;28;20019;-87
2022/09/28 06:39:24;;;;;;;10.15;6.15;;;8.10;99.90;;;;;;4993783;28;20395;-87
2022/09/28 06:41:51;;;;;;;18.25;7.72;;;8.10;99.90;;;;;;4993288;28;20022;-86
2022/09/28 06:44:17;;;;;;;22.05;9.30;;;8.10;99.90;;;;;;4993426;28;20030;-86
2022/09/28 06:46:42;;;;;;;12.77;7.25;;;8.10;99.90;;;;;;4993608;28;20092;-86
2022/09/28 06:49:08;;;;;;;14.52;6.90;;;8.20;99.90;;;;;;4991420;28;20632;-87
2022/09/28 06:51:35;;;;;;;12.85;6.72;;;8.20;99.90;;;;;;4991498;28;20065;-80
2022/09/28 06:54:01;;;;;;;13.73;7.28;;;8.30;99.90;;;;;;4990120;28;20027;-79
2022/09/28 06:56:27;;;;;;;14.25;8.35;;;8.30;99.90;;;;;;4990777;28;20410;-79
2022/09/28 06:58:54;;;;;;;15.98;8.73;;;8.40;99.90;;;;;;4990754;28;20042;-86
2022/09/28 07:01:20;;;;;;;13.48;9.02;;;8.50;99.90;;;;;;4991171;28;20042;-86
2022/09/28 07:03:45;;;;;;;14.45;8.77;;;8.60;99.90;;;;;;4992773;28;20061;-87
2022/09/28 07:06:11;;;;;;;20.35;10.00;;;8.80;99.90;;;;;;4992011;28;20050;-85
2022/09/28 07:08:37;;;;;;;16.10;10.73;;;8.80;99.90;;;;;;4993368;28;20030;-79
2022/09/28 07:11:07;;;;;;;19.67;11.30;;;9.00;99.90;;;;;;4991930;28;20031;-80
2022/09/28 07:13:32;;;;;;;12.60;9.52;;;9.20;99.90;;;;;;4992417;28;20376;-80
2022/09/28 07:15:58;;;;;;;14.73;8.80;;;9.30;99.90;;;;;;4991780;28;20031;-81
2022/09/28 07:18:25;;;;;;;9.93;7.07;;;9.70;99.90;;;;;;4993115;28;20438;-80
2022/09/28 07:20:51;;;;;;;10.35;6.82;;;9.80;99.90;;;;;;4979343;28;20023;-80
2022/09/28 07:23:17;;;;;;;7.88;5.38;;;9.80;99.90;;;;;;4973709;28;20369;-81
2022/09/28 07:25:46;;;;;;;8.82;5.50;;;9.90;99.90;;;;;;4973229;28;20027;-80
2022/09/28 07:28:12;;;;;;;5.10;3.88;;;9.80;99.90;;;;;;4973456;28;20038;-80
2022/09/28 07:30:38;;;;;;;9.30;5.35;;;9.70;99.90;;;;;;4990783;28;20030;-81
2022/09/28 07:33:06;;;;;;;8.07;5.00;;;9.80;99.90;;;;;;4989585;28;20050;-80
2022/09/28 07:35:33;;;;;;;7.45;5.47;;;9.70;99.90;;;;;;4973250;28;20034;-81
2022/09/28 07:38:05;;;;;;;4.75;4.15;;;9.60;99.90;;;;;;4973158;28;20031;-88
2022/09/28 07:43:19;;;;;;;8.85;5.20;;;9.50;99.90;;;;;;4973422;28;20117;-80
2022/09/28 07:45:46;;;;;;;5.38;3.58;;;9.50;99.90;;;;;;4972954;28;20392;-88
2022/09/28 07:48:14;;;;;;;7.85;5.15;;;9.40;99.90;;;;;;4971718;28;20403;-89
2022/09/28 07:50:41;;;;;;;6.47;4.80;;;9.50;99.90;;;;;;4978357;28;20148;-88
2022/09/28 07:53:07;;;;;;;7.60;4.75;;;9.60;99.90;;;;;;4991706;28;20030;-88
2022/09/28 07:55:32;;;;;;;7.78;5.07;;;9.90;99.90;;;;;;4993019;28;20022;-81
2022/09/28 07:57:59;;;;;;;9.27;5.57;;;10.20;99.90;;;;;;4992563;28;20515;-87
2022/09/28 08:00:26;;;;;;;7.60;4.00;;;10.20;99.90;;;;;;4991533;28;20022;-81
2022/09/28 08:02:52;;;;;;;5.22;3.40;;;10.40;99.90;;;;;;4991877;28;20018;-81
2022/09/28 08:05:17;;;;;;;5.88;3.58;;;10.50;99.90;;;;;;4992864;28;20079;-86
2022/09/28 08:07:43;;;;;;;4.72;3.17;;;10.70;99.90;;;;;;4992840;28;20074;-81
2022/09/28 08:10:09;;;;;;;5.03;3.30;;;10.80;99.90;;;;;;4993099;28;20048;-90
2022/09/28 08:12:39;;;;;;;3.60;2.63;;;10.80;99.90;;;;;;4992499;28;20031;-87
2022/09/28 08:15:09;;;;;;;3.20;2.40;;;10.80;99.90;;;;;;4991999;28;20073;-90
2022/09/28 08:17:34;;;;;;;2.40;2.20;;;10.90;99.90;;;;;;4991261;28;20044;-89
2022/09/28 08:22:45;;;;;;;4.72;2.35;;;10.80;99.90;;;;;;4992555;28;20041;-81
2022/09/28 08:25:10;;;;;;;4.25;2.00;;;10.70;99.90;;;;;;4992461;28;20026;-80
2022/09/28 08:27:36;;;;;;;3.33;1.60;;;10.60;99.90;;;;;;4992179;28;20045;-81
2022/09/28 08:30:02;;;;;;;3.33;1.85;;;10.60;99.90;;;;;;4992270;28;20026;-81
2022/09/28 08:32:28;;;;;;;3.97;1.98;;;10.40;99.90;;;;;;4992356;28;20054;-81
2022/09/28 08:34:54;;;;;;;4.28;2.45;;;10.30;99.90;;;;;;4972839;28;20058;-81
2022/09/28 08:37:20;;;;;;;3.55;2.35;;;10.30;99.90;;;;;;4972843;28;20022;-81
2022/09/28 08:39:46;;;;;;;2.60;1.60;;;10.40;99.90;;;;;;4972814;28;20031;-90
2022/09/28 08:42:27;;;;;;;1.85;1.75;;;10.40;99.90;;;;;;4972870;28;20038;-81
2022/09/28 08:44:57;;;;;;;1.52;1.40;;;10.50;99.90;;;;;;4971660;28;20052;-89
2022/09/28 08:50:31;;;;;;;1.67;1.40;;;10.60;99.90;;;;;;4973161;28;20435;-89
2022/09/28 08:53:21;;;;;;;1.60;1.50;;;11.00;99.90;;;;;;4972125;28;20057;-89
2022/09/28 08:55:48;;;;;;;2.03;1.42;;;11.10;99.90;;;;;;4971471;28;20033;-81
2022/09/28 08:58:22;;;;;;;2.13;1.10;;;11.00;99.90;;;;;;4972455;28;20110;-89
2022/09/28 09:00:50;;;;;;;3.13;1.67;;;11.00;99.90;;;;;;4972713;28;20054;-81
2022/09/28 09:03:21;;;;;;;2.30;1.45;;;11.10;99.90;;;;;;4972311;28;20068;-80
2022/09/28 09:05:46;;;;;;;1.90;1.27;;;11.10;99.90;;;;;;4972666;28;20375;-90
2022/09/28 09:08:33;;;;;;;1.58;1.38;;;11.10;99.90;;;;;;4972528;28;20119;-81
2022/09/28 09:10:59;;;;;;;2.08;1.10;;;11.20;99.90;;;;;;4972359;28;20034;-81
2022/09/28 09:13:51;;;;;;;2.50;1.27;;;11.40;99.90;;;;;;4972198;28;20423;-82
2022/09/28 09:16:23;;;;;;;1.10;1.05;;;11.50;99.90;;;;;;4987873;28;20066;-82
2022/09/28 09:18:57;;;;;;;0.90;0.90;;;11.70;99.90;;;;;;4971288;28;20428;-90
2022/09/28 09:21:45;;;;;;;1.63;0.80;;;11.80;99.90;;;;;;4971222;28;20023;-89
2022/09/28 09:24:26;;;;;;;0.93;0.93;;;11.80;94.90;;;;;;4972187;28;20019;-81
2022/09/28 09:27:11;;;;;;;1.10;1.00;;;11.80;93.00;;;;;;4972071;28;20042;-81
2022/09/28 09:29:43;;;;;;;2.08;1.00;;;11.70;90.50;;;;;;4981776;28;20022;-88
2022/09/28 09:32:36;;;;;;;2.20;1.00;;;12.00;93.80;;;;;;4989888;28;20519;-90
2022/09/28 09:35:30;;;;;;;1.75;1.40;;;12.20;86.60;;;;;;4983635;28;20102;-92
2022/09/28 09:38:23;;;;;;;1.92;1.25;;;12.40;88.30;;;;;;4970373;28;20033;-92
2022/09/28 09:41:01;;;;;;;2.05;1.02;;;12.60;85.00;;;;;;4971738;28;20058;-91
2022/09/28 09:44:04;;;;;;;0.90;0.80;;;12.60;81.10;;;;;;4970325;28;20034;-82
2022/09/28 09:47:06;;;;;;;0.70;0.60;;;12.50;83.50;;;;;;4971244;28;20077;-90
2022/09/28 09:49:50;;;;;;;1.67;1.30;;;12.40;81.80;;;;;;4971634;28;20452;-82
2022/09/28 09:52:25;;;;;;;2.25;1.20;;;12.20;82.50;;;;;;4972820;28;20027;-91
2022/09/28 09:54:57;;;;;;;3.22;0.98;;;12.00;82.90;;;;;;4984279;28;20376;-94
2022/09/28 09:57:29;;;;;;;6.15;1.45;;;12.20;84.90;;;;;;4986687;28;20061;-92
2022/09/28 09:59:57;;;;;;;1.20;0.90;;;12.30;88.10;;;;;;4986645;28;20030;-93
2022/09/28 10:02:29;;;;;;;1.08;0.98;;;12.30;81.80;;;;;;4984647;28;20095;-91
2022/09/28 10:05:27;;;;;;;4.15;1.17;;;12.40;82.10;;;;;;4987370;28;20122;-91
2022/09/28 10:08:07;;;;;;;0.75;0.75;;;12.60;80.10;;;;;;4997160;28;20049;-93
2022/09/28 10:11:06;;;;;;;0.75;0.60;;;12.60;78.20;;;;;;4989381;28;20050;-92
2022/09/28 10:13:32;;;;;;;1.50;0.80;;;12.70;79.00;;;;;;4987365;28;20027;-91
2022/09/28 10:15:59;;;;;;;1.50;0.90;;;12.60;79.20;;;;;;4987677;28;20029;-93
2022/09/28 10:18:26;;;;;;;1.13;0.55;;;12.70;75.70;;;;;;4989612;28;20026;-91
2022/09/28 10:20:52;;;;;;;2.05;1.05;;;12.80;74.10;;;;;;4988863;28;20015;-89
2022/09/28 10:23:24;;;;;;;2.00;0.70;;;12.80;72.80;;;;;;4989021;28;20030;-89
2022/09/28 10:25:58;;;;;;;0.57;0.57;;;12.90;71.90;;;;;;5003420;28;20034;-87
2022/09/28 10:28:34;;;;;;;2.20;1.20;;;13.10;74.40;;;;;;4980073;28;20080;-92
2022/09/28 10:31:20;;;;;;;0.80;0.80;;;13.20;72.60;;;;;;4985289;28;20029;-93
2022/09/28 10:33:46;;;;;;;0.75;0.63;;;13.20;71.10;;;;;;4967452;28;20038;-92
2022/09/28 10:36:12;;;;;;;0.88;0.88;;;13.20;70.00;;;;;;4967939;28;20100;-89
2022/09/28 10:38:38;;;;;;;1.52;0.70;;;13.30;70.30;;;;;;5025922;28;20090;-93
2022/09/28 10:41:12;;;;;;;3.63;1.20;;;13.30;68.90;;;;;;4976165;28;20026;-87
2022/09/28 10:43:49;;;;;;;0.57;0.50;;;13.50;71.80;;;;;;4966475;28;20089;-92
2022/09/28 10:46:22;;;;;;;0.93;0.70;;;13.60;69.50;;;;;;4967049;28;20118;-92
2022/09/28 10:48:58;;;;;;;1.23;0.70;;;13.30;67.70;;;;;;4968705;28;20054;-93
2022/09/28 10:51:50;;;;;;;0.60;0.60;;;13.30;69.00;;;;;;4967084;28;20046;-94
2022/09/28 10:54:27;;;;;;;1.70;0.60;;;13.20;70.40;;;;;;4968112;28;20101;-93
2022/09/28 10:56:55;;;;;;;1.90;0.98;;;13.10;70.50;;;;;;4967752;28;20043;-90
2022/09/28 10:59:30;;;;;;;0.57;0.52;;;13.10;72.90;;;;;;5022398;28;20021;-92
2022/09/28 11:02:00;;;;;;;0.85;0.75;;;13.00;70.90;;;;;;4975414;28;20035;-92
2022/09/28 11:04:29;;;;;;;1.77;0.75;;;13.30;72.90;;;;;;4986414;28;20025;-94
2022/09/28 11:06:58;;;;;;;1.25;0.80;;;13.50;74.40;;;;;;5007237;28;20520;-85
2022/09/28 11:09:40;;;;;;;2.30;0.50;;;13.70;74.60;;;;;;4984487;28;20724;-95
2022/09/28 11:12:13;;;;;;;1.83;1.17;;;13.80;70.90;;;;;;4998164;28;20031;-94
2022/09/28 11:14:42;;;;;;;3.90;0.90;;;13.90;69.60;;;;;;4966220;28;20031;-96
2022/09/28 11:17:32;;;;;;;0.63;0.57;;;13.90;67.40;;;;;;4972246;28;20039;-96
2022/09/28 11:20:00;;;;;;;1.73;1.02;;;14.00;66.20;;;;;;5016082;28;20057;-96
2022/09/28 11:22:43;;;;;;;1.00;0.73;;;14.00;66.40;;;;;;4965421;28;20058;-96
2022/09/28 11:25:15;;;;;;;1.77;0.75;;;14.00;66.40;;;;;;4970202;28;20033;-94
2022/09/28 11:28:03;;;;;;;0.73;0.73;;;14.10;70.60;;;;;;4960688;28;20075;-94
2022/09/28 11:30:48;;;;;;;1.33;0.68;;;13.90;67.40;;;;;;4972513;28;20081;-84
2022/09/28 11:33:19;;;;;;;2.55;0.75;;;13.70;67.70;;;;;;4987452;28;20122;-92
2022/09/28 11:35:50;;;;;;;4.20;1.00;;;13.60;68.30;;;;;;4992480;28;20039;-92
2022/09/28 11:38:40;;;;;;;1.27;0.77;;;13.70;69.70;;;;;;4980851;28;20387;-93
2022/09/28 11:41:23;;;;;;;1.20;0.70;;;14.00;71.80;;;;;;4987991;28;20034;-90
2022/09/28 11:44:10;;;;;;;2.78;1.15;;;14.20;68.40;;;;;;4979194;28;20026;-92
2022/09/28 11:46:51;;;;;;;0.82;0.60;;;14.30;70.10;;;;;;4982895;28;20070;-91
2022/09/28 11:49:36;;;;;;;1.15;0.70;;;14.30;67.40;;;;;;4990031;28;20092;-94
2022/09/28 11:52:27;;;;;;;2.83;0.85;;;14.30;66.70;;;;;;4974405;28;20039;-89
2022/09/28 11:55:34;;;;;;;1.52;0.82;;;14.30;67.70;;;;;;4995090;28;20063;-95
2022/09/28 11:58:09;;;;;;;2.13;1.38;;;14.30;69.40;;;;;;5018062;28;20117;-92
2022/09/28 12:00:41;;;;;;;9.25;1.95;;;14.40;71.60;;;;;;4998257;28;20050;-95
2022/09/28 12:03:46;;;;;;;2.28;1.83;;;14.50;70.00;;;;;;4995403;28;20026;-96
2022/09/28 12:06:18;;;;;;;2.58;0.90;;;14.30;69.80;;;;;;5011317;28;20107;-94
2022/09/28 12:08:59;;;;;;;3.22;0.88;;;14.30;69.50;;;;;;5023018;28;20062;-95
2022/09/28 12:11:38;;;;;;;1.55;0.90;;;14.20;68.40;;;;;;5034042;28;20030;-95
2022/09/28 12:14:09;;;;;;;1.27;0.80;;;14.30;69.70;;;;;;4983734;28;20110;-95
2022/09/28 12:16:49;;;;;;;1.95;0.98;;;14.30;69.00;;;;;;4992135;28;20037;-83
2022/09/28 12:19:19;;;;;;;2.15;1.08;;;14.30;69.40;;;;;;4992386;28;20031;-93
2022/09/28 12:21:52;;;;;;;2.45;1.40;;;14.50;71.80;;;;;;4991883;28;20494;-83
2022/09/28 12:24:39;;;;;;;4.80;1.10;;;14.70;70.10;;;;;;4991577;28;20026;-93
2022/09/28 12:27:33;;;;;;;3.97;1.77;;;15.00;70.60;;;;;;4989265;28;20121;-83
2022/09/28 12:30:13;;;;;;;2.75;1.15;;;14.90;70.10;;;;;;4987171;28;20019;-82
2022/09/28 12:32:51;;;;;;;1.45;0.80;;;14.80;70.80;;;;;;4988726;28;20062;-93
2022/09/28 12:35:36;;;;;;;1.10;0.88;;;14.80;70.60;;;;;;4989102;28;20088;-82
2022/09/28 12:38:07;;;;;;;2.28;1.27;;;14.70;69.40;;;;;;4990972;28;20048;-93
2022/09/28 12:40:58;;;;;;;1.80;0.73;;;14.50;72.00;;;;;;4987166;28;20490;-83
2022/09/28 12:43:57;;;;;;;1.52;0.77;;;14.40;72.50;;;;;;5005046;28;20046;-83
2022/09/28 12:46:33;;;;;;;1.95;0.88;;;14.30;72.70;;;;;;4990884;28;20605;-94
2022/09/28 12:49:28;;;;;;;2.70;1.20;;;14.20;73.60;;;;;;4986580;28;20018;-83
2022/09/28 12:51:59;;;;;;;3.20;1.15;;;14.20;74.80;;;;;;4990645;28;20050;-83
2022/09/28 12:54:43;;;;;;;2.55;0.90;;;14.20;74.40;;;;;;4989006;28;20046;-83
2022/09/28 12:57:38;;;;;;;2.17;1.17;;;14.20;74.80;;;;;;4990282;28;20030;-83
2022/09/28 13:00:10;;;;;;;4.72;1.17;;;14.30;76.10;;;;;;4986693;28;20047;-82
2022/09/28 13:03:13;;;;;;;1.67;0.85;;;14.40;76.00;;;;;;4982554;28;20038;-83
2022/09/28 13:05:43;;;;;;;4.03;0.80;;;14.50;73.80;;;;;;4982581;28;20442;-86
2022/09/28 13:08:08;;;;;;;0.90;0.63;;;14.70;75.50;;;;;;4989057;28;20030;-85
2022/09/28 13:10:53;;;;;;;1.05;0.80;;;14.80;71.60;;;;;;4986783;28;20027;-82
2022/09/28 13:13:39;;;;;;;1.88;1.05;;;14.90;72.10;;;;;;4990564;28;20452;-81
2022/09/28 13:16:36;;;;;;;1.20;0.75;;;14.90;72.80;;;;;;4972232;28;20042;-81
2022/09/28 13:19:19;;;;;;;1.23;0.82;;;14.90;70.70;;;;;;4972127;28;20023;-85